sensor_id;sensor_type;location;lat;lon;timestamp;P1;durP1;ratioP1;P2;durP2;ratioP2
6809;SDS011;3443;48.812;9.112;2022-08-19T00:00:19;9.80;;;8.80;;
6809;SDS011;3443;48.812;9.112;2022-08-19T00:02:45;10.60;;;9.50;;
6809;SDS011;3443;48.812;9.112;2022-08-19T00:05:13;11.73;;;9.90;;
6809;SDS011;3443;48.812;9.112;2022-08-19T00:07:40;12.18;;;9.95;;
6809;SDS011;3443;48.812;9.112;2022-08-19T00:10:07;10.93;;;9.82;;
6809;SDS011;3443;48.812;9.112;2022-08-19T00:12:33;11.77;;;9.93;;
6809;SDS011;3443;48.812;9.112;2022-08-19T00:15:01;10.13;;;9.02;;
6809;SDS011;3443;48.812;9.112;2022-08-19T00:17:27;10.77;;;9.77;;
6809;SDS011;3443;48.812;9.112;2022-08-19T00:19:53;10.60;;;9.18;;
6809;SDS011;3443;48.812;9.112;2022-08-19T00:22:19;11.70;;;9.13;;
6809;SDS011;3443;48.812;9.112;2022-08-19T00:24:45;11.43;;;10.25;;
6809;SDS011;3443;48.812;9.112;2022-08-19T00:27:12;11.55;;;9.50;;
6809;SDS011;3443;48.812;9.112;2022-08-19T00:29:38;11.55;;;9.77;;
6809;SDS011;3443;48.812;9.112;2022-08-19T00:32:04;10.38;;;9.15;;
6809;SDS011;3443;48.812;9.112;2022-08-19T00:34:31;11.73;;;9.57;;
6809;SDS011;3443;48.812;9.112;2022-08-19T00:36:58;12.55;;;9.40;;
6809;SDS011;3443;48.812;9.112;2022-08-19T00:39:24;11.43;;;9.95;;
6809;SDS011;3443;48.812;9.112;2022-08-19T00:41:50;11.27;;;9.55;;
6809;SDS011;3443;48.812;9.112;2022-08-19T00:44:27;11.77;;;9.85;;
6809;SDS011;3443;48.812;9.112;2022-08-19T00:46:55;12.60;;;10.27;;
6809;SDS011;3443;48.812;9.112;2022-08-19T00:51:55;11.38;;;9.93;;
6809;SDS011;3443;48.812;9.112;2022-08-19T00:54:23;12.50;;;10.48;;
6809;SDS011;3443;48.812;9.112;2022-08-19T00:56:49;11.40;;;10.23;;
6809;SDS011;3443;48.812;9.112;2022-08-19T00:59:16;11.30;;;10.20;;
6809;SDS011;3443;48.812;9.112;2022-08-19T01:01:43;11.23;;;10.00;;
6809;SDS011;3443;48.812;9.112;2022-08-19T01:04:10;11.65;;;9.73;;
6809;SDS011;3443;48.812;9.112;2022-08-19T01:06:37;11.55;;;10.30;;
6809;SDS011;3443;48.812;9.112;2022-08-19T01:09:04;15.75;;;11.50;;
6809;SDS011;3443;48.812;9.112;2022-08-19T01:11:31;11.57;;;9.85;;
6809;SDS011;3443;48.812;9.112;2022-08-19T01:13:58;11.25;;;10.05;;
6809;SDS011;3443;48.812;9.112;2022-08-19T01:16:25;11.85;;;10.23;;
6809;SDS011;3443;48.812;9.112;2022-08-19T01:18:52;11.40;;;10.20;;
6809;SDS011;3443;48.812;9.112;2022-08-19T01:21:23;13.15;;;10.95;;
6809;SDS011;3443;48.812;9.112;2022-08-19T01:23:52;11.07;;;10.05;;
6809;SDS011;3443;48.812;9.112;2022-08-19T01:26:19;13.05;;;10.93;;
6809;SDS011;3443;48.812;9.112;2022-08-19T01:28:47;10.25;;;9.25;;
6809;SDS011;3443;48.812;9.112;2022-08-19T01:31:19;10.88;;;9.68;;
6809;SDS011;3443;48.812;9.112;2022-08-19T01:33:47;11.23;;;10.00;;
6809;SDS011;3443;48.812;9.112;2022-08-19T01:36:14;11.77;;;10.07;;
6809;SDS011;3443;48.812;9.112;2022-08-19T01:38:41;11.68;;;9.45;;
6809;SDS011;3443;48.812;9.112;2022-08-19T01:41:09;11.82;;;10.60;;
6809;SDS011;3443;48.812;9.112;2022-08-19T01:43:35;12.38;;;10.27;;
6809;SDS011;3443;48.812;9.112;2022-08-19T01:46:02;15.00;;;11.75;;
6809;SDS011;3443;48.812;9.112;2022-08-19T01:48:32;13.15;;;11.75;;
6809;SDS011;3443;48.812;9.112;2022-08-19T01:50:58;15.55;;;10.88;;
6809;SDS011;3443;48.812;9.112;2022-08-19T01:53:24;16.38;;;11.90;;
6809;SDS011;3443;48.812;9.112;2022-08-19T01:55:54;12.13;;;10.82;;
6809;SDS011;3443;48.812;9.112;2022-08-19T01:58:21;15.23;;;11.25;;
6809;SDS011;3443;48.812;9.112;2022-08-19T02:00:48;14.27;;;12.07;;
6809;SDS011;3443;48.812;9.112;2022-08-19T02:03:15;15.60;;;11.63;;
6809;SDS011;3443;48.812;9.112;2022-08-19T02:05:42;14.25;;;12.75;;
6809;SDS011;3443;48.812;9.112;2022-08-19T02:08:08;16.27;;;12.13;;
6809;SDS011;3443;48.812;9.112;2022-08-19T02:10:37;14.88;;;11.93;;
6809;SDS011;3443;48.812;9.112;2022-08-19T02:13:03;15.18;;;11.90;;
6809;SDS011;3443;48.812;9.112;2022-08-19T02:15:29;14.38;;;12.18;;
6809;SDS011;3443;48.812;9.112;2022-08-19T02:17:57;15.13;;;12.15;;
6809;SDS011;3443;48.812;9.112;2022-08-19T02:20:23;15.80;;;12.93;;
6809;SDS011;3443;48.812;9.112;2022-08-19T02:22:49;17.58;;;13.43;;
6809;SDS011;3443;48.812;9.112;2022-08-19T02:25:15;14.55;;;12.48;;
6809;SDS011;3443;48.812;9.112;2022-08-19T02:27:41;14.73;;;11.85;;
6809;SDS011;3443;48.812;9.112;2022-08-19T02:30:11;19.15;;;14.30;;
6809;SDS011;3443;48.812;9.112;2022-08-19T02:32:38;14.38;;;12.60;;
6809;SDS011;3443;48.812;9.112;2022-08-19T02:35:04;15.13;;;12.63;;
6809;SDS011;3443;48.812;9.112;2022-08-19T02:37:30;18.67;;;13.60;;
6809;SDS011;3443;48.812;9.112;2022-08-19T02:40:15;15.73;;;12.80;;
6809;SDS011;3443;48.812;9.112;2022-08-19T02:42:43;15.45;;;12.27;;
6809;SDS011;3443;48.812;9.112;2022-08-19T02:45:10;17.20;;;13.00;;
6809;SDS011;3443;48.812;9.112;2022-08-19T02:47:36;20.02;;;14.63;;
6809;SDS011;3443;48.812;9.112;2022-08-19T02:50:03;17.65;;;13.15;;
6809;SDS011;3443;48.812;9.112;2022-08-19T02:52:29;15.05;;;12.45;;
6809;SDS011;3443;48.812;9.112;2022-08-19T02:54:57;16.67;;;12.98;;
6809;SDS011;3443;48.812;9.112;2022-08-19T02:57:23;16.38;;;13.13;;
6809;SDS011;3443;48.812;9.112;2022-08-19T02:59:49;14.48;;;12.98;;
6809;SDS011;3443;48.812;9.112;2022-08-19T03:02:15;17.27;;;14.05;;
6809;SDS011;3443;48.812;9.112;2022-08-19T03:04:42;16.58;;;14.10;;
6809;SDS011;3443;48.812;9.112;2022-08-19T03:07:08;16.50;;;13.70;;
6809;SDS011;3443;48.812;9.112;2022-08-19T03:09:36;17.75;;;14.15;;
6809;SDS011;3443;48.812;9.112;2022-08-19T03:12:03;17.17;;;14.30;;
6809;SDS011;3443;48.812;9.112;2022-08-19T03:14:32;18.20;;;14.55;;
6809;SDS011;3443;48.812;9.112;2022-08-19T03:16:59;17.45;;;14.30;;
6809;SDS011;3443;48.812;9.112;2022-08-19T03:19:25;16.20;;;13.48;;
6809;SDS011;3443;48.812;9.112;2022-08-19T03:21:52;16.73;;;14.35;;
6809;SDS011;3443;48.812;9.112;2022-08-19T03:24:19;17.90;;;14.77;;
6809;SDS011;3443;48.812;9.112;2022-08-19T03:26:49;22.00;;;15.02;;
6809;SDS011;3443;48.812;9.112;2022-08-19T03:29:16;20.15;;;15.82;;
6809;SDS011;3443;48.812;9.112;2022-08-19T03:31:43;18.63;;;15.27;;
6809;SDS011;3443;48.812;9.112;2022-08-19T03:34:15;17.55;;;15.43;;
6809;SDS011;3443;48.812;9.112;2022-08-19T03:36:42;16.50;;;13.90;;
6809;SDS011;3443;48.812;9.112;2022-08-19T03:39:10;18.52;;;15.57;;
6809;SDS011;3443;48.812;9.112;2022-08-19T03:41:37;17.73;;;15.43;;
6809;SDS011;3443;48.812;9.112;2022-08-19T03:44:04;17.92;;;14.43;;
6809;SDS011;3443;48.812;9.112;2022-08-19T03:46:31;17.08;;;15.10;;
6809;SDS011;3443;48.812;9.112;2022-08-19T03:48:58;19.73;;;16.42;;
6809;SDS011;3443;48.812;9.112;2022-08-19T03:51:32;18.70;;;15.38;;
6809;SDS011;3443;48.812;9.112;2022-08-19T03:54:00;18.58;;;15.60;;
6809;SDS011;3443;48.812;9.112;2022-08-19T03:56:27;16.95;;;14.48;;
6809;SDS011;3443;48.812;9.112;2022-08-19T03:58:54;18.80;;;15.57;;
6809;SDS011;3443;48.812;9.112;2022-08-19T04:01:21;17.70;;;14.85;;
6809;SDS011;3443;48.812;9.112;2022-08-19T04:03:48;19.92;;;16.65;;
6809;SDS011;3443;48.812;9.112;2022-08-19T04:06:18;21.55;;;15.77;;
6809;SDS011;3443;48.812;9.112;2022-08-19T04:08:46;19.90;;;16.98;;
6809;SDS011;3443;48.812;9.112;2022-08-19T04:11:13;21.50;;;17.02;;
6809;SDS011;3443;48.812;9.112;2022-08-19T04:13:40;19.65;;;16.05;;
6809;SDS011;3443;48.812;9.112;2022-08-19T04:16:07;19.63;;;17.35;;
6809;SDS011;3443;48.812;9.112;2022-08-19T04:18:35;19.35;;;16.15;;
6809;SDS011;3443;48.812;9.112;2022-08-19T04:21:01;20.85;;;16.70;;
6809;SDS011;3443;48.812;9.112;2022-08-19T04:23:28;20.25;;;17.33;;
6809;SDS011;3443;48.812;9.112;2022-08-19T04:25:54;18.77;;;15.43;;
6809;SDS011;3443;48.812;9.112;2022-08-19T04:28:20;21.08;;;17.25;;
6809;SDS011;3443;48.812;9.112;2022-08-19T04:30:48;20.63;;;16.80;;
6809;SDS011;3443;48.812;9.112;2022-08-19T04:33:16;18.83;;;16.00;;
6809;SDS011;3443;48.812;9.112;2022-08-19T04:35:44;19.42;;;17.33;;
6809;SDS011;3443;48.812;9.112;2022-08-19T04:38:11;20.20;;;17.15;;
6809;SDS011;3443;48.812;9.112;2022-08-19T04:40:41;21.38;;;16.83;;
6809;SDS011;3443;48.812;9.112;2022-08-19T04:43:26;22.58;;;18.17;;
6809;SDS011;3443;48.812;9.112;2022-08-19T04:45:52;21.85;;;16.80;;
6809;SDS011;3443;48.812;9.112;2022-08-19T04:48:18;17.73;;;15.15;;
6809;SDS011;3443;48.812;9.112;2022-08-19T04:50:50;23.70;;;17.38;;
6809;SDS011;3443;48.812;9.112;2022-08-19T04:53:21;23.48;;;16.92;;
6809;SDS011;3443;48.812;9.112;2022-08-19T04:55:47;19.92;;;17.60;;
6809;SDS011;3443;48.812;9.112;2022-08-19T04:58:13;21.98;;;18.48;;
6809;SDS011;3443;48.812;9.112;2022-08-19T05:00:41;22.05;;;18.02;;
6809;SDS011;3443;48.812;9.112;2022-08-19T05:03:07;21.20;;;16.60;;
6809;SDS011;3443;48.812;9.112;2022-08-19T05:05:33;22.80;;;18.60;;
6809;SDS011;3443;48.812;9.112;2022-08-19T05:07:59;20.98;;;17.50;;
6809;SDS011;3443;48.812;9.112;2022-08-19T05:10:25;20.23;;;17.20;;
6809;SDS011;3443;48.812;9.112;2022-08-19T05:12:51;21.70;;;18.25;;
6809;SDS011;3443;48.812;9.112;2022-08-19T05:15:17;22.48;;;18.77;;
6809;SDS011;3443;48.812;9.112;2022-08-19T05:17:44;18.80;;;16.05;;
6809;SDS011;3443;48.812;9.112;2022-08-19T05:20:30;22.25;;;17.42;;
6809;SDS011;3443;48.812;9.112;2022-08-19T05:23:15;19.65;;;17.05;;
6809;SDS011;3443;48.812;9.112;2022-08-19T05:25:42;22.45;;;18.13;;
6809;SDS011;3443;48.812;9.112;2022-08-19T05:28:08;18.20;;;15.55;;
6809;SDS011;3443;48.812;9.112;2022-08-19T05:30:34;19.77;;;16.13;;
6809;SDS011;3443;48.812;9.112;2022-08-19T05:33:00;18.98;;;16.83;;
6809;SDS011;3443;48.812;9.112;2022-08-19T05:35:26;20.38;;;16.58;;
6809;SDS011;3443;48.812;9.112;2022-08-19T05:37:53;23.63;;;18.75;;
6809;SDS011;3443;48.812;9.112;2022-08-19T05:40:19;21.67;;;17.77;;
6809;SDS011;3443;48.812;9.112;2022-08-19T05:42:45;20.20;;;17.10;;
6809;SDS011;3443;48.812;9.112;2022-08-19T05:45:11;21.10;;;18.42;;
6809;SDS011;3443;48.812;9.112;2022-08-19T05:47:37;23.50;;;17.52;;
6809;SDS011;3443;48.812;9.112;2022-08-19T05:50:04;20.70;;;16.60;;
6809;SDS011;3443;48.812;9.112;2022-08-19T05:52:30;21.05;;;17.60;;
6809;SDS011;3443;48.812;9.112;2022-08-19T05:54:56;22.27;;;18.17;;
6809;SDS011;3443;48.812;9.112;2022-08-19T05:57:23;21.85;;;18.15;;
6809;SDS011;3443;48.812;9.112;2022-08-19T05:59:49;21.45;;;16.70;;
6809;SDS011;3443;48.812;9.112;2022-08-19T06:02:16;19.83;;;15.05;;
6809;SDS011;3443;48.812;9.112;2022-08-19T06:04:42;19.50;;;15.93;;
6809;SDS011;3443;48.812;9.112;2022-08-19T06:07:08;23.52;;;18.70;;
6809;SDS011;3443;48.812;9.112;2022-08-19T06:09:34;19.25;;;16.25;;
6809;SDS011;3443;48.812;9.112;2022-08-19T06:12:02;19.10;;;16.70;;
6809;SDS011;3443;48.812;9.112;2022-08-19T06:14:30;19.92;;;16.10;;
6809;SDS011;3443;48.812;9.112;2022-08-19T06:16:57;19.35;;;16.17;;
6809;SDS011;3443;48.812;9.112;2022-08-19T06:19:26;18.80;;;15.52;;
6809;SDS011;3443;48.812;9.112;2022-08-19T06:21:55;17.58;;;15.50;;
6809;SDS011;3443;48.812;9.112;2022-08-19T06:24:22;23.48;;;17.88;;
6809;SDS011;3443;48.812;9.112;2022-08-19T06:26:49;17.83;;;15.93;;
6809;SDS011;3443;48.812;9.112;2022-08-19T06:29:16;20.95;;;17.88;;
6809;SDS011;3443;48.812;9.112;2022-08-19T06:31:44;16.48;;;14.48;;
6809;SDS011;3443;48.812;9.112;2022-08-19T06:34:10;21.63;;;17.35;;
6809;SDS011;3443;48.812;9.112;2022-08-19T06:36:38;21.42;;;17.17;;
6809;SDS011;3443;48.812;9.112;2022-08-19T06:39:10;22.60;;;18.42;;
6809;SDS011;3443;48.812;9.112;2022-08-19T06:41:37;16.63;;;14.32;;
6809;SDS011;3443;48.812;9.112;2022-08-19T06:44:04;21.10;;;16.25;;
6809;SDS011;3443;48.812;9.112;2022-08-19T06:46:30;19.88;;;16.73;;
6809;SDS011;3443;48.812;9.112;2022-08-19T06:48:57;20.55;;;16.30;;
6809;SDS011;3443;48.812;9.112;2022-08-19T06:51:23;17.17;;;14.65;;
6809;SDS011;3443;48.812;9.112;2022-08-19T06:53:50;17.25;;;15.05;;
6809;SDS011;3443;48.812;9.112;2022-08-19T06:56:18;18.10;;;15.07;;
6809;SDS011;3443;48.812;9.112;2022-08-19T06:58:46;19.33;;;17.02;;
6809;SDS011;3443;48.812;9.112;2022-08-19T07:01:15;18.73;;;15.20;;
6809;SDS011;3443;48.812;9.112;2022-08-19T07:03:41;18.20;;;15.45;;
6809;SDS011;3443;48.812;9.112;2022-08-19T07:06:11;19.27;;;16.58;;
6809;SDS011;3443;48.812;9.112;2022-08-19T07:08:39;17.65;;;14.98;;
6809;SDS011;3443;48.812;9.112;2022-08-19T07:11:08;18.67;;;16.50;;
6809;SDS011;3443;48.812;9.112;2022-08-19T07:13:34;18.13;;;15.20;;
6809;SDS011;3443;48.812;9.112;2022-08-19T07:16:05;17.40;;;15.02;;
6809;SDS011;3443;48.812;9.112;2022-08-19T07:18:31;18.48;;;15.60;;
6809;SDS011;3443;48.812;9.112;2022-08-19T07:21:08;16.02;;;14.18;;
6809;SDS011;3443;48.812;9.112;2022-08-19T07:23:35;18.55;;;15.90;;
6809;SDS011;3443;48.812;9.112;2022-08-19T07:26:06;17.95;;;15.05;;
6809;SDS011;3443;48.812;9.112;2022-08-19T07:28:32;18.17;;;15.38;;
6809;SDS011;3443;48.812;9.112;2022-08-19T07:30:58;16.30;;;14.32;;
6809;SDS011;3443;48.812;9.112;2022-08-19T07:33:26;17.85;;;14.25;;
6809;SDS011;3443;48.812;9.112;2022-08-19T07:35:55;14.88;;;13.32;;
6809;SDS011;3443;48.812;9.112;2022-08-19T07:38:21;16.35;;;14.60;;
6809;SDS011;3443;48.812;9.112;2022-08-19T07:40:47;15.73;;;14.05;;
6809;SDS011;3443;48.812;9.112;2022-08-19T07:43:13;15.73;;;13.93;;
6809;SDS011;3443;48.812;9.112;2022-08-19T07:45:40;20.02;;;14.45;;
6809;SDS011;3443;48.812;9.112;2022-08-19T07:48:07;19.95;;;15.43;;
6809;SDS011;3443;48.812;9.112;2022-08-19T07:50:33;23.10;;;15.38;;
6809;SDS011;3443;48.812;9.112;2022-08-19T07:52:59;19.08;;;13.25;;
6809;SDS011;3443;48.812;9.112;2022-08-19T07:55:25;19.02;;;15.63;;
6809;SDS011;3443;48.812;9.112;2022-08-19T07:57:52;18.23;;;14.75;;
6809;SDS011;3443;48.812;9.112;2022-08-19T08:00:18;18.00;;;14.65;;
6809;SDS011;3443;48.812;9.112;2022-08-19T08:02:45;17.38;;;14.45;;
6809;SDS011;3443;48.812;9.112;2022-08-19T08:05:11;18.80;;;14.43;;
6809;SDS011;3443;48.812;9.112;2022-08-19T08:07:55;16.30;;;13.85;;
6809;SDS011;3443;48.812;9.112;2022-08-19T08:10:40;17.35;;;14.77;;
6809;SDS011;3443;48.812;9.112;2022-08-19T08:13:06;16.00;;;14.32;;
6809;SDS011;3443;48.812;9.112;2022-08-19T08:15:32;17.70;;;15.35;;
6809;SDS011;3443;48.812;9.112;2022-08-19T08:17:58;17.42;;;15.48;;
6809;SDS011;3443;48.812;9.112;2022-08-19T08:20:24;16.65;;;14.80;;
6809;SDS011;3443;48.812;9.112;2022-08-19T08:22:51;15.98;;;14.25;;
6809;SDS011;3443;48.812;9.112;2022-08-19T08:25:35;17.67;;;13.43;;
6809;SDS011;3443;48.812;9.112;2022-08-19T08:28:02;16.77;;;13.63;;
6809;SDS011;3443;48.812;9.112;2022-08-19T08:30:29;17.52;;;14.40;;
6809;SDS011;3443;48.812;9.112;2022-08-19T08:32:57;16.20;;;13.18;;
6809;SDS011;3443;48.812;9.112;2022-08-19T08:35:23;15.48;;;13.60;;
6809;SDS011;3443;48.812;9.112;2022-08-19T08:37:51;15.57;;;13.50;;
6809;SDS011;3443;48.812;9.112;2022-08-19T08:42:54;16.63;;;13.55;;
6809;SDS011;3443;48.812;9.112;2022-08-19T08:45:25;16.65;;;14.95;;
6809;SDS011;3443;48.812;9.112;2022-08-19T08:47:52;16.42;;;13.40;;
6809;SDS011;3443;48.812;9.112;2022-08-19T08:50:38;15.30;;;13.57;;
6809;SDS011;3443;48.812;9.112;2022-08-19T08:53:05;14.18;;;12.75;;
6809;SDS011;3443;48.812;9.112;2022-08-19T08:55:31;16.88;;;14.57;;
6809;SDS011;3443;48.812;9.112;2022-08-19T08:57:59;16.42;;;13.15;;
6809;SDS011;3443;48.812;9.112;2022-08-19T09:00:27;19.42;;;14.25;;
6809;SDS011;3443;48.812;9.112;2022-08-19T09:02:54;13.90;;;12.15;;
6809;SDS011;3443;48.812;9.112;2022-08-19T09:05:22;14.13;;;12.20;;
6809;SDS011;3443;48.812;9.112;2022-08-19T09:08:06;15.05;;;13.48;;
6809;SDS011;3443;48.812;9.112;2022-08-19T09:15:29;14.13;;;11.98;;
6809;SDS011;3443;48.812;9.112;2022-08-19T09:18:03;13.48;;;12.07;;
6809;SDS011;3443;48.812;9.112;2022-08-19T09:20:31;14.20;;;12.70;;
6809;SDS011;3443;48.812;9.112;2022-08-19T09:22:57;12.90;;;10.23;;
6809;SDS011;3443;48.812;9.112;2022-08-19T09:25:24;15.23;;;12.45;;
6809;SDS011;3443;48.812;9.112;2022-08-19T09:27:51;13.60;;;12.07;;
6809;SDS011;3443;48.812;9.112;2022-08-19T09:30:28;14.25;;;10.85;;
6809;SDS011;3443;48.812;9.112;2022-08-19T09:32:55;13.45;;;11.95;;
6809;SDS011;3443;48.812;9.112;2022-08-19T09:35:22;16.40;;;11.77;;
6809;SDS011;3443;48.812;9.112;2022-08-19T09:37:49;14.20;;;10.55;;
6809;SDS011;3443;48.812;9.112;2022-08-19T09:40:15;13.10;;;11.20;;
6809;SDS011;3443;48.812;9.112;2022-08-19T09:42:42;12.43;;;10.98;;
6809;SDS011;3443;48.812;9.112;2022-08-19T09:45:09;11.40;;;10.05;;
6809;SDS011;3443;48.812;9.112;2022-08-19T09:47:35;12.30;;;10.73;;
6809;SDS011;3443;48.812;9.112;2022-08-19T09:50:03;10.95;;;9.85;;
6809;SDS011;3443;48.812;9.112;2022-08-19T09:52:30;11.45;;;9.50;;
6809;SDS011;3443;48.812;9.112;2022-08-19T09:54:56;11.40;;;10.20;;
6809;SDS011;3443;48.812;9.112;2022-08-19T09:57:22;10.90;;;9.80;;
6809;SDS011;3443;48.812;9.112;2022-08-19T09:59:48;12.32;;;9.50;;
6809;SDS011;3443;48.812;9.112;2022-08-19T10:02:15;11.05;;;9.85;;
6809;SDS011;3443;48.812;9.112;2022-08-19T10:04:41;11.48;;;9.52;;
6809;SDS011;3443;48.812;9.112;2022-08-19T10:07:25;10.82;;;9.77;;
6809;SDS011;3443;48.812;9.112;2022-08-19T10:09:51;11.18;;;9.82;;
6809;SDS011;3443;48.812;9.112;2022-08-19T10:12:18;12.20;;;9.48;;
6809;SDS011;3443;48.812;9.112;2022-08-19T10:14:44;10.25;;;9.23;;
6809;SDS011;3443;48.812;9.112;2022-08-19T10:17:11;11.98;;;9.52;;
6809;SDS011;3443;48.812;9.112;2022-08-19T10:19:37;11.32;;;9.45;;
6809;SDS011;3443;48.812;9.112;2022-08-19T10:22:04;9.90;;;8.90;;
6809;SDS011;3443;48.812;9.112;2022-08-19T10:24:30;9.95;;;8.93;;
6809;SDS011;3443;48.812;9.112;2022-08-19T10:26:57;11.00;;;9.10;;
6809;SDS011;3443;48.812;9.112;2022-08-19T10:29:23;11.35;;;8.85;;
6809;SDS011;3443;48.812;9.112;2022-08-19T10:31:49;10.23;;;8.50;;
6809;SDS011;3443;48.812;9.112;2022-08-19T10:34:15;11.00;;;8.98;;
6809;SDS011;3443;48.812;9.112;2022-08-19T10:36:42;11.57;;;9.10;;
6809;SDS011;3443;48.812;9.112;2022-08-19T10:39:09;10.48;;;8.60;;
6809;SDS011;3443;48.812;9.112;2022-08-19T10:41:38;11.68;;;8.15;;
6809;SDS011;3443;48.812;9.112;2022-08-19T10:44:08;16.13;;;8.65;;
6809;SDS011;3443;48.812;9.112;2022-08-19T10:46:38;8.95;;;8.05;;
6809;SDS011;3443;48.812;9.112;2022-08-19T10:49:06;9.90;;;8.00;;
6809;SDS011;3443;48.812;9.112;2022-08-19T10:51:33;8.45;;;7.70;;
6809;SDS011;3443;48.812;9.112;2022-08-19T10:54:19;9.90;;;7.53;;
6809;SDS011;3443;48.812;9.112;2022-08-19T10:56:45;8.88;;;8.07;;
6809;SDS011;3443;48.812;9.112;2022-08-19T10:59:18;7.75;;;7.07;;
6809;SDS011;3443;48.812;9.112;2022-08-19T11:01:45;11.18;;;7.63;;
6809;SDS011;3443;48.812;9.112;2022-08-19T11:04:11;9.75;;;7.70;;
6809;SDS011;3443;48.812;9.112;2022-08-19T11:06:39;7.65;;;6.68;;
6809;SDS011;3443;48.812;9.112;2022-08-19T11:09:06;9.00;;;8.10;;
6809;SDS011;3443;48.812;9.112;2022-08-19T11:11:33;12.48;;;7.35;;
6809;SDS011;3443;48.812;9.112;2022-08-19T11:14:05;10.23;;;8.27;;
6809;SDS011;3443;48.812;9.112;2022-08-19T11:16:31;8.43;;;7.60;;
6809;SDS011;3443;48.812;9.112;2022-08-19T11:18:57;8.27;;;7.20;;
6809;SDS011;3443;48.812;9.112;2022-08-19T11:21:25;8.25;;;7.53;;
6809;SDS011;3443;48.812;9.112;2022-08-19T11:23:53;8.93;;;7.82;;
6809;SDS011;3443;48.812;9.112;2022-08-19T11:26:20;8.68;;;7.80;;
6809;SDS011;3443;48.812;9.112;2022-08-19T11:28:47;9.00;;;7.75;;
6809;SDS011;3443;48.812;9.112;2022-08-19T11:31:17;7.70;;;7.00;;
6809;SDS011;3443;48.812;9.112;2022-08-19T11:33:44;6.70;;;5.80;;
6809;SDS011;3443;48.812;9.112;2022-08-19T11:36:11;6.72;;;6.22;;
6809;SDS011;3443;48.812;9.112;2022-08-19T11:38:37;8.25;;;6.68;;
6809;SDS011;3443;48.812;9.112;2022-08-19T11:41:04;6.78;;;6.28;;
6809;SDS011;3443;48.812;9.112;2022-08-19T11:43:31;6.70;;;6.15;;
6809;SDS011;3443;48.812;9.112;2022-08-19T11:45:57;6.65;;;6.05;;
6809;SDS011;3443;48.812;9.112;2022-08-19T11:48:24;7.45;;;6.75;;
6809;SDS011;3443;48.812;9.112;2022-08-19T11:50:53;7.25;;;6.55;;
6809;SDS011;3443;48.812;9.112;2022-08-19T11:53:23;7.60;;;6.55;;
6809;SDS011;3443;48.812;9.112;2022-08-19T11:55:49;7.55;;;6.85;;
6809;SDS011;3443;48.812;9.112;2022-08-19T11:58:16;7.30;;;6.70;;
6809;SDS011;3443;48.812;9.112;2022-08-19T12:00:43;7.25;;;6.57;;
6809;SDS011;3443;48.812;9.112;2022-08-19T12:03:10;7.75;;;7.00;;
6809;SDS011;3443;48.812;9.112;2022-08-19T12:05:37;7.13;;;6.30;;
6809;SDS011;3443;48.812;9.112;2022-08-19T12:08:04;8.18;;;6.65;;
6809;SDS011;3443;48.812;9.112;2022-08-19T12:10:30;6.65;;;6.03;;
6809;SDS011;3443;48.812;9.112;2022-08-19T12:12:56;6.85;;;6.25;;
6809;SDS011;3443;48.812;9.112;2022-08-19T12:15:22;7.50;;;6.75;;
6809;SDS011;3443;48.812;9.112;2022-08-19T12:17:48;6.82;;;6.22;;
6809;SDS011;3443;48.812;9.112;2022-08-19T12:20:14;6.95;;;6.35;;
6809;SDS011;3443;48.812;9.112;2022-08-19T12:22:41;6.82;;;6.28;;
6809;SDS011;3443;48.812;9.112;2022-08-19T12:25:11;6.78;;;6.07;;
6809;SDS011;3443;48.812;9.112;2022-08-19T12:27:38;6.00;;;5.30;;
6809;SDS011;3443;48.812;9.112;2022-08-19T12:30:04;6.03;;;5.53;;
6809;SDS011;3443;48.812;9.112;2022-08-19T12:32:30;6.63;;;5.90;;
6809;SDS011;3443;48.812;9.112;2022-08-19T12:34:57;5.53;;;5.13;;
6809;SDS011;3443;48.812;9.112;2022-08-19T12:37:23;6.03;;;5.53;;
6809;SDS011;3443;48.812;9.112;2022-08-19T12:39:49;5.70;;;5.20;;
6809;SDS011;3443;48.812;9.112;2022-08-19T12:42:15;6.47;;;5.40;;
6809;SDS011;3443;48.812;9.112;2022-08-19T12:44:43;6.07;;;5.60;;
6809;SDS011;3443;48.812;9.112;2022-08-19T12:47:10;7.03;;;5.30;;
6809;SDS011;3443;48.812;9.112;2022-08-19T12:49:36;5.68;;;5.28;;
6809;SDS011;3443;48.812;9.112;2022-08-19T12:52:04;5.72;;;5.28;;
6809;SDS011;3443;48.812;9.112;2022-08-19T12:54:30;5.65;;;5.15;;
6809;SDS011;3443;48.812;9.112;2022-08-19T12:56:57;5.45;;;4.97;;
6809;SDS011;3443;48.812;9.112;2022-08-19T12:59:24;5.07;;;4.75;;
6809;SDS011;3443;48.812;9.112;2022-08-19T13:01:50;5.43;;;5.03;;
6809;SDS011;3443;48.812;9.112;2022-08-19T13:04:18;5.93;;;5.28;;
6809;SDS011;3443;48.812;9.112;2022-08-19T13:06:44;5.32;;;4.63;;
6809;SDS011;3443;48.812;9.112;2022-08-19T13:09:10;5.28;;;4.97;;
6809;SDS011;3443;48.812;9.112;2022-08-19T13:11:36;5.75;;;5.25;;
6809;SDS011;3443;48.812;9.112;2022-08-19T13:14:03;5.28;;;4.88;;
6809;SDS011;3443;48.812;9.112;2022-08-19T13:16:29;5.10;;;4.72;;
6809;SDS011;3443;48.812;9.112;2022-08-19T13:18:56;6.70;;;5.30;;
6809;SDS011;3443;48.812;9.112;2022-08-19T13:21:26;6.13;;;5.15;;
6809;SDS011;3443;48.812;9.112;2022-08-19T13:23:54;5.00;;;4.60;;
6809;SDS011;3443;48.812;9.112;2022-08-19T13:26:20;5.07;;;4.57;;
6809;SDS011;3443;48.812;9.112;2022-08-19T13:28:47;7.63;;;5.03;;
6809;SDS011;3443;48.812;9.112;2022-08-19T13:31:33;5.28;;;4.97;;
6809;SDS011;3443;48.812;9.112;2022-08-19T13:34:19;5.00;;;4.18;;
6809;SDS011;3443;48.812;9.112;2022-08-19T13:36:52;4.95;;;4.55;;
6809;SDS011;3443;48.812;9.112;2022-08-19T13:39:18;5.00;;;4.53;;
6809;SDS011;3443;48.812;9.112;2022-08-19T13:41:45;4.95;;;4.45;;
6809;SDS011;3443;48.812;9.112;2022-08-19T13:44:13;5.05;;;4.55;;
6809;SDS011;3443;48.812;9.112;2022-08-19T13:46:40;4.65;;;4.25;;
6809;SDS011;3443;48.812;9.112;2022-08-19T13:49:10;5.85;;;5.35;;
6809;SDS011;3443;48.812;9.112;2022-08-19T13:51:38;6.90;;;6.30;;
6809;SDS011;3443;48.812;9.112;2022-08-19T13:54:07;13.90;;;9.27;;
6809;SDS011;3443;48.812;9.112;2022-08-19T13:56:34;12.90;;;11.63;;
6809;SDS011;3443;48.812;9.112;2022-08-19T13:59:00;15.00;;;11.48;;
6809;SDS011;3443;48.812;9.112;2022-08-19T14:01:27;14.80;;;10.68;;
6809;SDS011;3443;48.812;9.112;2022-08-19T14:03:53;11.63;;;10.43;;
6809;SDS011;3443;48.812;9.112;2022-08-19T14:06:19;12.40;;;11.10;;
6809;SDS011;3443;48.812;9.112;2022-08-19T14:08:47;13.93;;;11.20;;
6809;SDS011;3443;48.812;9.112;2022-08-19T14:11:13;16.42;;;11.27;;
6809;SDS011;3443;48.812;9.112;2022-08-19T14:13:40;12.25;;;10.68;;
6809;SDS011;3443;48.812;9.112;2022-08-19T14:16:07;11.85;;;10.65;;
6809;SDS011;3443;48.812;9.112;2022-08-19T14:18:33;10.23;;;9.23;;
6809;SDS011;3443;48.812;9.112;2022-08-19T14:20:59;9.77;;;8.85;;
6809;SDS011;3443;48.812;9.112;2022-08-19T14:23:26;9.57;;;8.38;;
6809;SDS011;3443;48.812;9.112;2022-08-19T14:25:52;9.95;;;9.10;;
6809;SDS011;3443;48.812;9.112;2022-08-19T14:28:20;8.88;;;8.18;;
6809;SDS011;3443;48.812;9.112;2022-08-19T14:30:47;10.57;;;9.43;;
6809;SDS011;3443;48.812;9.112;2022-08-19T14:33:13;10.70;;;9.35;;
6809;SDS011;3443;48.812;9.112;2022-08-19T14:35:39;10.43;;;9.43;;
6809;SDS011;3443;48.812;9.112;2022-08-19T14:38:14;11.80;;;10.60;;
6809;SDS011;3443;48.812;9.112;2022-08-19T14:40:41;12.27;;;9.68;;
6809;SDS011;3443;48.812;9.112;2022-08-19T14:43:07;11.43;;;10.23;;
6809;SDS011;3443;48.812;9.112;2022-08-19T14:45:34;10.77;;;9.80;;
6809;SDS011;3443;48.812;9.112;2022-08-19T14:48:01;10.82;;;9.80;;
6809;SDS011;3443;48.812;9.112;2022-08-19T14:50:27;9.98;;;9.18;;
6809;SDS011;3443;48.812;9.112;2022-08-19T14:53:00;10.13;;;9.13;;
6809;SDS011;3443;48.812;9.112;2022-08-19T14:55:27;10.10;;;9.15;;
6809;SDS011;3443;48.812;9.112;2022-08-19T14:57:53;9.18;;;8.48;;
6809;SDS011;3443;48.812;9.112;2022-08-19T15:00:19;9.25;;;8.32;;
6809;SDS011;3443;48.812;9.112;2022-08-19T15:02:45;8.65;;;7.82;;
6809;SDS011;3443;48.812;9.112;2022-08-19T15:05:12;8.18;;;7.47;;
6809;SDS011;3443;48.812;9.112;2022-08-19T15:07:39;8.13;;;7.45;;